createdAt,value
2022-08-28T00:00:43.611Z,2.65
2022-08-28T00:03:13.474Z,2.50
2022-08-28T00:05:43.175Z,2.10
2022-08-28T00:08:12.205Z,2.55
2022-08-28T00:10:40.587Z,2.38
2022-08-28T00:13:09.284Z,2.47
2022-08-28T00:15:37.995Z,2.42
2022-08-28T00:18:05.971Z,2.63
2022-08-28T00:20:34.768Z,2.60
2022-08-28T00:23:01.842Z,2.50
2022-08-28T00:25:30.394Z,3.08
2022-08-28T00:28:00.152Z,2.58
2022-08-28T00:30:37.315Z,2.67
2022-08-28T00:33:18.180Z,2.58
2022-08-28T00:35:46.143Z,2.47
2022-08-28T00:38:14.885Z,2.42
2022-08-28T00:40:44.605Z,3.40
2022-08-28T00:43:38.615Z,2.80
2022-08-28T00:46:12.025Z,2.45
2022-08-28T00:48:40.173Z,2.78
2022-08-28T00:51:26.439Z,2.80
2022-08-28T00:53:58.609Z,2.80
2022-08-28T00:56:27.573Z,2.25
2022-08-28T00:58:56.843Z,2.83
2022-08-28T01:01:24.644Z,2.67
2022-08-28T01:03:51.611Z,2.55
2022-08-28T01:06:20.653Z,2.22
2022-08-28T01:08:50.610Z,2.30
2022-08-28T01:11:19.566Z,2.15
2022-08-28T01:13:48.635Z,2.42
2022-08-28T01:16:17.505Z,2.25
2022-08-28T01:18:46.207Z,2.17
2022-08-28T01:21:23.804Z,2.83
2022-08-28T01:24:13.954Z,2.72
2022-08-28T01:26:42.119Z,2.40
2022-08-28T01:29:10.245Z,2.60
2022-08-28T01:31:39.439Z,2.30
2022-08-28T01:34:08.070Z,2.65
2022-08-28T01:36:35.538Z,2.80
2022-08-28T01:39:13.016Z,2.30
2022-08-28T01:41:42.214Z,2.42
2022-08-28T01:44:09.639Z,3.13
2022-08-28T01:46:36.962Z,2.60
2022-08-28T01:49:04.843Z,2.95
2022-08-28T01:51:35.087Z,2.45
2022-08-28T01:54:06.181Z,2.35
2022-08-28T01:56:34.968Z,2.80
2022-08-28T01:59:05.654Z,2.72
2022-08-28T02:01:33.499Z,2.28
2022-08-28T02:04:00.974Z,2.47
2022-08-28T02:06:27.990Z,2.47
2022-08-28T02:08:55.593Z,3.10
2022-08-28T02:11:24.289Z,3.00
2022-08-28T02:13:52.816Z,2.45
2022-08-28T02:16:21.394Z,2.80
2022-08-28T02:18:48.995Z,2.25
2022-08-28T02:21:16.142Z,2.50
2022-08-28T02:23:44.642Z,2.30
2022-08-28T02:26:12.628Z,2.70
2022-08-28T02:28:40.237Z,2.60
2022-08-28T02:31:09.365Z,2.90
2022-08-28T02:33:41.830Z,2.60
2022-08-28T02:36:11.518Z,3.20
2022-08-28T02:38:39.035Z,2.78
2022-08-28T02:41:07.052Z,3.00
2022-08-28T02:43:34.519Z,3.92
2022-08-28T02:46:01.720Z,3.05
2022-08-28T02:48:31.758Z,3.03
2022-08-28T02:51:04.140Z,2.90
2022-08-28T02:53:31.542Z,2.40
2022-08-28T02:56:00.553Z,2.92
2022-08-28T02:58:27.517Z,3.03
2022-08-28T03:00:55.534Z,2.63
2022-08-28T03:03:22.736Z,2.85
2022-08-28T03:05:49.931Z,2.58
2022-08-28T03:08:16.877Z,3.58
2022-08-28T03:10:43.890Z,2.80
2022-08-28T03:13:26.466Z,3.22
2022-08-28T03:15:55.754Z,3.10
2022-08-28T03:18:24.472Z,3.60
2022-08-28T03:20:52.940Z,3.17
2022-08-28T03:23:29.207Z,3.28
2022-08-28T03:26:06.346Z,3.03
2022-08-28T03:28:39.875Z,3.13
2022-08-28T03:31:08.806Z,3.50
2022-08-28T03:33:36.693Z,3.92
2022-08-28T03:36:04.645Z,3.40
2022-08-28T03:38:32.184Z,3.42
2022-08-28T03:40:59.469Z,3.30
2022-08-28T03:43:27.382Z,3.45
2022-08-28T03:45:59.042Z,3.30
2022-08-28T03:48:28.568Z,3.53
2022-08-28T03:50:55.817Z,3.92
2022-08-28T03:53:24.788Z,3.33
2022-08-28T03:55:52.649Z,3.67
2022-08-28T03:58:19.868Z,3.42
2022-08-28T04:00:47.415Z,3.15
2022-08-28T04:03:14.859Z,3.53
2022-08-28T04:05:43.748Z,3.25
2022-08-28T04:08:15.819Z,3.05
2022-08-28T04:10:44.288Z,3.22
2022-08-28T04:13:12.254Z,3.90
2022-08-28T04:15:39.493Z,3.75
2022-08-28T04:18:06.543Z,3.65
2022-08-28T04:20:33.768Z,3.70
2022-08-28T04:23:03.867Z,3.97
2022-08-28T04:25:31.400Z,3.72
2022-08-28T04:27:59.190Z,4.10
2022-08-28T04:30:26.185Z,3.88
2022-08-28T04:32:53.131Z,3.65
2022-08-28T04:35:20.163Z,3.72
2022-08-28T04:37:47.104Z,3.88
2022-08-28T04:40:15.990Z,3.60
2022-08-28T04:42:45.014Z,3.90
2022-08-28T04:45:12.394Z,3.70
2022-08-28T04:47:40.103Z,3.78
2022-08-28T04:50:08.218Z,4.22
2022-08-28T04:52:35.199Z,4.05
2022-08-28T04:55:02.366Z,3.75
2022-08-28T04:57:32.233Z,3.78
2022-08-28T05:00:03.723Z,3.97
2022-08-28T05:02:32.100Z,4.03
2022-08-28T05:04:59.964Z,3.55
2022-08-28T05:07:26.898Z,4.05
2022-08-28T05:09:54.660Z,3.75
2022-08-28T05:12:22.201Z,4.40
2022-08-28T05:14:49.791Z,4.15
2022-08-28T05:17:16.943Z,4.07
2022-08-28T05:19:43.911Z,3.60
2022-08-28T05:22:11.261Z,4.10
2022-08-28T05:24:40.215Z,3.97
2022-08-28T05:27:08.696Z,3.72
2022-08-28T05:29:35.991Z,4.20
2022-08-28T05:32:03.630Z,4.55
2022-08-28T05:34:31.749Z,4.25
2022-08-28T05:36:58.780Z,4.18
2022-08-28T05:39:25.789Z,4.20
2022-08-28T05:41:52.731Z,4.00
2022-08-28T05:44:20.953Z,3.88
2022-08-28T05:46:48.553Z,4.40
2022-08-28T05:49:18.220Z,3.78
2022-08-28T05:51:45.815Z,4.00
2022-08-28T05:54:13.196Z,4.13
2022-08-28T05:56:41.199Z,4.40
2022-08-28T05:59:08.896Z,4.38
2022-08-28T06:01:40.448Z,4.13
2022-08-28T06:04:10.842Z,4.05
2022-08-28T06:06:40.295Z,4.28
2022-08-28T06:09:13.591Z,4.53
2022-08-28T06:11:44.603Z,3.83
2022-08-28T06:14:16.571Z,4.30
2022-08-28T06:16:52.924Z,4.50
2022-08-28T06:19:22.869Z,4.53
2022-08-28T06:21:52.526Z,4.25
2022-08-28T06:24:19.583Z,6.15
2022-08-28T06:26:46.509Z,4.70
2022-08-28T06:29:21.099Z,4.63
2022-08-28T06:31:58.134Z,4.10
2022-08-28T06:34:25.726Z,4.30
2022-08-28T06:36:54.213Z,4.45
2022-08-28T06:39:22.298Z,3.70
2022-08-28T06:41:49.381Z,3.90
2022-08-28T06:44:19.881Z,3.78
2022-08-28T06:46:49.166Z,4.00
2022-08-28T06:49:16.690Z,3.97
2022-08-28T06:51:43.891Z,3.90
2022-08-28T06:54:11.277Z,3.80
2022-08-28T06:56:38.563Z,4.05
2022-08-28T06:59:05.626Z,4.35
2022-08-28T07:01:35.592Z,4.10
2022-08-28T07:04:06.362Z,3.70
2022-08-28T07:06:36.119Z,4.03
2022-08-28T07:09:06.219Z,4.13
2022-08-28T07:11:34.813Z,4.03
2022-08-28T07:14:02.972Z,4.40
2022-08-28T07:16:32.671Z,3.67
2022-08-28T07:19:04.380Z,3.67
2022-08-28T07:21:38.321Z,3.75
2022-08-28T07:24:06.591Z,4.78
2022-08-28T07:26:33.762Z,3.90
2022-08-28T07:29:09.991Z,4.25
2022-08-28T07:31:40.769Z,4.00
2022-08-28T07:34:09.613Z,4.15
2022-08-28T07:36:37.301Z,4.18
2022-08-28T07:39:05.435Z,4.60
2022-08-28T07:41:35.420Z,3.95
2022-08-28T07:44:21.532Z,3.95
2022-08-28T07:46:48.528Z,4.00
2022-08-28T07:49:17.200Z,4.10
2022-08-28T07:51:45.679Z,4.22
2022-08-28T07:54:17.641Z,4.82
2022-08-28T07:56:47.242Z,4.05
2022-08-28T07:59:16.954Z,4.40
2022-08-28T08:01:47.032Z,4.20
2022-08-28T08:04:16.171Z,3.97
2022-08-28T08:06:44.069Z,4.80
2022-08-28T08:09:14.288Z,4.80
2022-08-28T08:11:41.375Z,4.80
2022-08-28T08:14:08.483Z,4.75
2022-08-28T08:16:39.005Z,4.75
2022-08-28T08:19:09.787Z,4.40
2022-08-28T08:21:37.207Z,4.72
2022-08-28T08:24:04.459Z,4.55
2022-08-28T08:26:32.311Z,4.60
2022-08-28T08:29:00.951Z,4.65
2022-08-28T08:31:32.470Z,4.20
2022-08-28T08:34:02.056Z,4.00
2022-08-28T08:36:30.055Z,4.78
2022-08-28T08:38:59.267Z,4.78
2022-08-28T08:41:48.764Z,5.03
2022-08-28T08:44:33.494Z,5.18
2022-08-28T08:47:17.217Z,5.07
2022-08-28T08:49:57.202Z,5.03
2022-08-28T08:52:37.954Z,5.20
2022-08-28T08:55:28.234Z,4.82
2022-08-28T08:58:05.578Z,5.05
2022-08-28T09:00:53.485Z,5.22
2022-08-28T09:03:30.103Z,5.43
2022-08-28T09:06:04.310Z,6.07
2022-08-28T09:08:31.315Z,5.55
2022-08-28T09:11:08.186Z,4.95
2022-08-28T09:14:01.067Z,7.85
2022-08-28T09:16:33.065Z,5.40
2022-08-28T09:19:02.261Z,5.00
2022-08-28T09:21:32.560Z,5.28
2022-08-28T09:24:05.809Z,5.30
2022-08-28T09:26:33.596Z,4.50
2022-08-28T09:29:17.655Z,5.50
2022-08-28T09:31:45.128Z,5.65
2022-08-28T09:34:26.611Z,6.05
2022-08-28T09:36:55.127Z,5.88
2022-08-28T09:39:29.319Z,5.55
2022-08-28T09:42:40.062Z,5.97
2022-08-28T09:45:15.051Z,6.00
2022-08-28T09:47:51.028Z,5.97
2022-08-28T09:50:38.816Z,5.85
2022-08-28T09:53:11.798Z,5.65
2022-08-28T09:56:08.484Z,6.15
2022-08-28T09:58:46.212Z,5.88
2022-08-28T10:01:45.220Z,6.45
2022-08-28T10:04:27.389Z,5.88
2022-08-28T10:07:35.010Z,5.40
2022-08-28T10:10:29.856Z,6.60
2022-08-28T10:13:10.239Z,6.53
2022-08-28T10:16:08.949Z,5.60
2022-08-28T10:18:48.016Z,6.10
2022-08-28T10:21:39.614Z,6.55
2022-08-28T10:24:12.243Z,6.13
2022-08-28T10:26:57.332Z,5.93
2022-08-28T10:29:36.241Z,7.10
2022-08-28T10:32:40.079Z,6.65
2022-08-28T10:35:32.843Z,5.90
2022-08-28T10:38:05.787Z,6.53
2022-08-28T10:40:38.913Z,5.80
2022-08-28T10:43:12.010Z,6.03
2022-08-28T10:45:39.580Z,5.75
2022-08-28T10:48:19.877Z,6.35
2022-08-28T10:50:55.094Z,5.75
2022-08-28T10:53:30.501Z,6.00
2022-08-28T10:56:03.242Z,5.57
2022-08-28T11:01:07.000Z,6.30
2022-08-28T11:03:46.414Z,6.03
2022-08-28T11:06:22.744Z,6.15
2022-08-28T11:08:55.943Z,6.60
2022-08-28T11:11:43.092Z,7.10
2022-08-28T11:14:22.883Z,6.53
2022-08-28T11:16:50.295Z,6.43
2022-08-28T11:19:38.704Z,6.10
2022-08-28T11:22:21.509Z,6.63
2022-08-28T11:25:04.454Z,7.15
2022-08-28T11:27:37.909Z,6.35
2022-08-28T11:30:11.199Z,6.22
2022-08-28T11:32:57.170Z,6.10
2022-08-28T11:35:29.951Z,6.00
2022-08-28T11:37:58.515Z,6.18
2022-08-28T11:40:28.278Z,6.20
2022-08-28T11:43:16.927Z,6.43
2022-08-28T11:45:46.537Z,6.70
2022-08-28T11:48:23.439Z,7.00
2022-08-28T11:50:53.352Z,6.82
2022-08-28T11:53:33.735Z,6.75
2022-08-28T11:56:06.697Z,6.03
2022-08-28T11:58:57.215Z,6.70
2022-08-28T12:01:37.570Z,6.40
2022-08-28T12:04:14.324Z,6.72
2022-08-28T12:06:54.764Z,6.22
2022-08-28T12:09:43.961Z,6.70
2022-08-28T12:12:13.540Z,6.32
2022-08-28T12:14:40.851Z,6.25
2022-08-28T12:17:20.304Z,6.03
2022-08-28T12:19:59.815Z,6.68
2022-08-28T12:22:44.919Z,6.13
2022-08-28T12:25:22.210Z,5.68
2022-08-28T12:27:49.728Z,6.43
2022-08-28T12:30:28.263Z,6.22
2022-08-28T12:33:07.998Z,6.38
2022-08-28T12:35:35.455Z,6.13
2022-08-28T12:38:05.956Z,6.30
2022-08-28T12:40:56.208Z,6.32
2022-08-28T12:43:28.934Z,7.03
2022-08-28T12:46:00.891Z,6.65
2022-08-28T12:48:52.120Z,6.10
2022-08-28T12:51:26.105Z,6.05
2022-08-28T12:53:56.962Z,6.05
2022-08-28T12:56:26.248Z,5.85
2022-08-28T12:58:53.288Z,6.15
2022-08-28T13:01:32.197Z,6.32
2022-08-28T13:04:05.517Z,6.78
2022-08-28T13:06:38.818Z,6.07
2022-08-28T13:09:18.644Z,6.45
2022-08-28T13:11:51.424Z,5.93
2022-08-28T13:14:46.137Z,5.55
2022-08-28T13:17:15.409Z,5.72
2022-08-28T13:19:42.570Z,5.65
2022-08-28T13:22:34.056Z,5.85
2022-08-28T13:25:02.912Z,6.30
2022-08-28T13:27:30.107Z,5.90
2022-08-28T13:30:19.945Z,6.05
2022-08-28T13:33:02.051Z,5.30
2022-08-28T13:35:35.149Z,6.60
2022-08-28T13:38:06.076Z,7.00
2022-08-28T13:43:41.910Z,6.63
2022-08-28T13:46:08.851Z,6.93
2022-08-28T13:48:35.877Z,6.68
2022-08-28T13:51:07.593Z,6.50
2022-08-28T13:53:38.227Z,6.78
2022-08-28T13:56:05.303Z,6.70
2022-08-28T13:58:32.357Z,6.75
2022-08-28T14:00:59.915Z,6.88
2022-08-28T14:03:36.014Z,6.38
2022-08-28T14:06:11.190Z,6.53
2022-08-28T14:08:39.865Z,7.07
2022-08-28T14:11:07.386Z,6.88
2022-08-28T14:13:34.432Z,7.40
2022-08-28T14:16:05.481Z,7.15
2022-08-28T14:18:32.600Z,6.50
2022-08-28T14:20:59.608Z,7.57
2022-08-28T14:23:26.624Z,7.13
2022-08-28T14:25:53.591Z,6.82
2022-08-28T14:28:20.627Z,7.47
2022-08-28T14:30:50.919Z,6.75
2022-08-28T14:33:20.493Z,7.43
2022-08-28T14:35:49.095Z,7.35
2022-08-28T14:38:16.110Z,7.60
2022-08-28T14:40:44.515Z,7.35
2022-08-28T14:43:13.266Z,7.32
2022-08-28T14:45:45.989Z,7.20
2022-08-28T14:48:14.345Z,6.22
2022-08-28T14:50:43.212Z,6.70
2022-08-28T14:53:11.019Z,7.05
2022-08-28T14:55:43.874Z,6.68
2022-08-28T14:58:11.431Z,6.80
2022-08-28T15:00:46.093Z,6.47
2022-08-28T15:03:14.029Z,6.72
2022-08-28T15:05:41.807Z,6.60
2022-08-28T15:08:10.688Z,6.07
2022-08-28T15:10:39.146Z,7.05
2022-08-28T15:13:09.187Z,6.30
2022-08-28T15:15:41.327Z,6.55
2022-08-28T15:18:10.411Z,6.53
2022-08-28T15:20:39.660Z,6.75
2022-08-28T15:23:06.767Z,6.97
2022-08-28T15:25:33.833Z,6.85
2022-08-28T15:28:00.912Z,6.75
2022-08-28T15:30:27.920Z,7.20
2022-08-28T15:32:54.955Z,6.78
2022-08-28T15:35:21.971Z,7.10
2022-08-28T15:37:49.328Z,7.05
2022-08-28T15:40:34.901Z,7.00
2022-08-28T15:43:02.099Z,6.55
2022-08-28T15:45:29.121Z,7.05
2022-08-28T15:47:58.000Z,6.90
2022-08-28T15:50:24.968Z,7.32
2022-08-28T15:52:53.538Z,6.60
2022-08-28T15:55:20.568Z,7.07
2022-08-28T15:57:47.688Z,7.05
2022-08-28T16:00:15.382Z,6.88
2022-08-28T16:02:44.461Z,7.35
2022-08-28T16:05:11.656Z,7.38
2022-08-28T16:07:38.761Z,6.55
2022-08-28T16:10:07.676Z,6.85
2022-08-28T16:12:35.702Z,6.70
2022-08-28T16:15:02.835Z,6.25
2022-08-28T16:17:29.760Z,6.53
2022-08-28T16:19:57.401Z,6.28
2022-08-28T16:22:24.611Z,6.57
2022-08-28T16:24:51.667Z,6.80
2022-08-28T16:27:18.613Z,7.55
2022-08-28T16:29:45.898Z,7.05
2022-08-28T16:32:12.914Z,6.50
2022-08-28T16:34:40.038Z,7.20
2022-08-28T16:37:07.911Z,6.90
2022-08-28T16:39:36.169Z,6.95
2022-08-28T16:42:03.340Z,7.55
2022-08-28T16:44:30.317Z,7.25
2022-08-28T16:46:57.654Z,7.00
2022-08-28T16:49:24.763Z,6.85
2022-08-28T16:51:51.735Z,7.30
2022-08-28T16:54:19.319Z,7.03
2022-08-28T16:56:46.767Z,6.22
2022-08-28T16:59:17.454Z,6.40
2022-08-28T17:01:44.700Z,6.25
2022-08-28T17:04:12.365Z,6.57
2022-08-28T17:06:40.134Z,6.90
2022-08-28T17:09:07.271Z,6.28
2022-08-28T17:11:34.360Z,7.10
2022-08-28T17:14:01.635Z,6.43
2022-08-28T17:16:32.057Z,6.35
2022-08-28T17:18:59.840Z,6.20
2022-08-28T17:21:45.680Z,6.80
2022-08-28T17:24:13.653Z,6.70
2022-08-28T17:26:41.886Z,6.38
2022-08-28T17:29:09.413Z,6.18
2022-08-28T17:31:36.628Z,6.90
2022-08-28T17:34:05.645Z,6.97
2022-08-28T17:36:34.330Z,7.57
2022-08-28T17:39:11.666Z,6.38
2022-08-28T17:41:40.846Z,6.65
2022-08-28T17:44:08.505Z,6.75
2022-08-28T17:46:37.967Z,6.85
2022-08-28T17:49:07.004Z,6.63
2022-08-28T17:51:43.430Z,8.52
2022-08-28T17:54:18.381Z,11.88
2022-08-28T17:56:46.350Z,7.57
2022-08-28T17:59:14.540Z,8.98
2022-08-28T18:01:42.420Z,8.70
2022-08-28T18:04:09.597Z,7.50
2022-08-28T18:06:37.236Z,6.60
2022-08-28T18:09:05.793Z,6.32
2022-08-28T18:11:33.063Z,6.47
2022-08-28T18:14:00.816Z,7.47
2022-08-28T18:16:31.508Z,7.32
2022-08-28T18:19:00.038Z,7.57
2022-08-28T18:21:27.417Z,6.72
2022-08-28T18:23:54.467Z,7.03
2022-08-28T18:26:21.489Z,7.35
2022-08-28T18:28:48.755Z,7.88
2022-08-28T18:31:15.924Z,7.25
2022-08-28T18:33:42.920Z,7.57
2022-08-28T18:36:11.929Z,7.78
2022-08-28T18:38:39.695Z,6.72
2022-08-28T18:41:08.591Z,7.50
2022-08-28T18:43:36.558Z,7.30
2022-08-28T18:46:05.001Z,7.15
2022-08-28T18:48:32.335Z,6.85
2022-08-28T18:50:59.343Z,7.95
2022-08-28T18:53:27.963Z,7.20
2022-08-28T18:55:56.130Z,7.72
2022-08-28T18:58:27.468Z,6.75
2022-08-28T19:00:54.799Z,7.50
2022-08-28T19:03:22.745Z,7.72
2022-08-28T19:05:51.093Z,7.63
2022-08-28T19:08:18.088Z,7.18
2022-08-28T19:10:45.302Z,7.63
2022-08-28T19:13:12.398Z,7.72
2022-08-28T19:15:39.807Z,7.45
2022-08-28T19:18:07.546Z,7.35
2022-08-28T19:20:34.853Z,8.02
2022-08-28T19:23:01.967Z,7.88
2022-08-28T19:25:30.765Z,7.65
2022-08-28T19:27:59.758Z,7.70
2022-08-28T19:30:29.106Z,7.93
2022-08-28T19:32:56.117Z,7.88
2022-08-28T19:35:24.453Z,8.40
2022-08-28T19:37:52.790Z,8.00
2022-08-28T19:40:20.908Z,7.32
2022-08-28T19:42:50.005Z,7.72
2022-08-28T19:45:18.401Z,7.85
2022-08-28T19:47:46.912Z,7.35
2022-08-28T19:50:14.624Z,7.70
2022-08-28T19:52:43.379Z,7.75
2022-08-28T19:55:18.209Z,7.57
2022-08-28T19:57:46.886Z,7.40
2022-08-28T20:00:17.818Z,7.90
2022-08-28T20:02:46.387Z,7.88
2022-08-28T20:05:13.674Z,8.40
2022-08-28T20:07:41.182Z,9.98
2022-08-28T20:10:08.849Z,8.70
2022-08-28T20:12:38.548Z,8.40
2022-08-28T20:15:08.775Z,7.50
2022-08-28T20:17:43.605Z,7.93
2022-08-28T20:20:11.785Z,7.60
2022-08-28T20:22:39.475Z,7.50
2022-08-28T20:25:08.448Z,7.30
2022-08-28T20:27:36.233Z,7.20
2022-08-28T20:30:10.815Z,7.55
2022-08-28T20:32:40.136Z,7.60
2022-08-28T20:35:09.504Z,8.35
2022-08-28T20:37:44.667Z,7.22
2022-08-28T20:40:15.944Z,7.55
2022-08-28T20:42:43.765Z,6.88
2022-08-28T20:45:12.940Z,7.28
2022-08-28T20:47:39.883Z,7.10
2022-08-28T20:50:07.873Z,7.32
2022-08-28T20:52:35.025Z,7.35
2022-08-28T20:55:02.605Z,7.57
2022-08-28T20:57:29.638Z,7.10
2022-08-28T20:59:56.691Z,7.13
2022-08-28T21:02:27.267Z,7.45
2022-08-28T21:04:55.333Z,7.22
2022-08-28T21:07:25.237Z,7.53
2022-08-28T21:10:05.204Z,8.40
2022-08-28T21:12:36.344Z,7.05
2022-08-28T21:15:05.076Z,7.07
2022-08-28T21:17:32.139Z,7.28
2022-08-28T21:20:05.600Z,8.00
2022-08-28T21:22:35.164Z,7.88
2022-08-28T21:25:03.829Z,7.43
2022-08-28T21:27:30.774Z,7.93
2022-08-28T21:29:59.200Z,7.75
2022-08-28T21:32:27.376Z,7.30
2022-08-28T21:34:55.217Z,7.95
2022-08-28T21:37:23.098Z,8.95
2022-08-28T21:39:50.799Z,8.55
2022-08-28T21:42:18.064Z,9.95
2022-08-28T21:44:51.528Z,9.00
2022-08-28T21:47:23.920Z,9.90
2022-08-28T21:49:53.254Z,10.88
2022-08-28T21:52:21.980Z,10.25
2022-08-28T21:54:49.546Z,9.88
2022-08-28T21:57:17.672Z,10.65
2022-08-28T21:59:44.679Z,9.57
2022-08-28T22:02:11.725Z,10.20
2022-08-28T22:04:38.801Z,11.27
2022-08-28T22:07:06.572Z,10.93
2022-08-28T22:09:33.528Z,11.00
2022-08-28T22:12:00.648Z,10.13
2022-08-28T22:14:28.536Z,11.93
2022-08-28T22:16:55.737Z,11.38
2022-08-28T22:19:22.918Z,10.48
2022-08-28T22:22:09.011Z,10.65
2022-08-28T22:24:36.636Z,10.48
2022-08-28T22:27:05.050Z,10.68
2022-08-28T22:29:36.461Z,10.75
2022-08-28T22:32:05.440Z,10.95
2022-08-28T22:34:42.069Z,10.68
2022-08-28T22:37:11.598Z,11.38
2022-08-28T22:39:39.751Z,10.48
2022-08-28T22:42:07.155Z,10.93
2022-08-28T22:44:34.496Z,10.35
2022-08-28T22:47:01.453Z,10.10
2022-08-28T22:49:28.420Z,9.85
2022-08-28T22:51:55.390Z,9.75
2022-08-28T22:54:22.373Z,9.80
2022-08-28T22:56:49.351Z,10.02
2022-08-28T22:59:17.175Z,10.07
2022-08-28T23:01:44.271Z,9.63
2022-08-28T23:04:11.996Z,9.20
2022-08-28T23:06:40.343Z,9.80
2022-08-28T23:09:08.375Z,8.98
2022-08-28T23:11:36.491Z,10.05
2022-08-28T23:14:05.088Z,9.52
2022-08-28T23:16:32.463Z,9.25
2022-08-28T23:19:09.633Z,10.00
2022-08-28T23:21:43.783Z,9.10
2022-08-28T23:24:12.576Z,9.40
2022-08-28T23:26:39.640Z,9.30
2022-08-28T23:29:06.643Z,8.73
2022-08-28T23:31:33.743Z,8.40
2022-08-28T23:34:00.714Z,8.48
2022-08-28T23:36:27.781Z,8.57
2022-08-28T23:38:54.779Z,7.25
2022-08-28T23:41:22.101Z,8.85
2022-08-28T23:43:49.064Z,8.00
2022-08-28T23:46:17.961Z,8.30
2022-08-28T23:48:45.306Z,8.07
2022-08-28T23:51:17.008Z,8.00
2022-08-28T23:53:44.268Z,7.93
2022-08-28T23:56:11.515Z,7.70
2022-08-28T23:58:43.253Z,8.20
